sensor_id;sensor_type;location;lat;lon;timestamp;temperature;humidity
72114;SHT31;59989;46.220;19.888;2024-03-08T00:02:12;5.39;96.40
72114;SHT31;59989;46.220;19.888;2024-03-08T00:05:15;5.41;96.45
72114;SHT31;59989;46.220;19.888;2024-03-08T00:08:18;5.38;96.51
72114;SHT31;59989;46.220;19.888;2024-03-08T00:11:20;5.38;96.57
72114;SHT31;59989;46.220;19.888;2024-03-08T00:14:24;5.38;96.58
72114;SHT31;59989;46.220;19.888;2024-03-08T00:17:27;5.41;96.53
72114;SHT31;59989;46.220;19.888;2024-03-08T00:20:31;5.39;96.50
72114;SHT31;59989;46.220;19.888;2024-03-08T00:23:33;5.39;96.48
72114;SHT31;59989;46.220;19.888;2024-03-08T00:26:36;5.32;96.41
72114;SHT31;59989;46.220;19.888;2024-03-08T00:29:38;5.32;96.59
72114;SHT31;59989;46.220;19.888;2024-03-08T00:32:41;5.28;96.67
72114;SHT31;59989;46.220;19.888;2024-03-08T00:35:44;5.25;96.74
72114;SHT31;59989;46.220;19.888;2024-03-08T00:38:47;5.24;96.84
72114;SHT31;59989;46.220;19.888;2024-03-08T00:41:49;5.23;96.97
72114;SHT31;59989;46.220;19.888;2024-03-08T00:44:52;5.30;96.92
72114;SHT31;59989;46.220;19.888;2024-03-08T00:47:54;5.32;96.98
72114;SHT31;59989;46.220;19.888;2024-03-08T00:50:57;5.30;96.55
72114;SHT31;59989;46.220;19.888;2024-03-08T00:54:00;5.32;96.36
72114;SHT31;59989;46.220;19.888;2024-03-08T00:57:03;5.31;96.11
72114;SHT31;59989;46.220;19.888;2024-03-08T01:00:06;5.32;96.03
72114;SHT31;59989;46.220;19.888;2024-03-08T01:03:15;5.32;95.70
72114;SHT31;59989;46.220;19.888;2024-03-08T01:06:17;5.34;95.56
72114;SHT31;59989;46.220;19.888;2024-03-08T01:09:20;5.38;95.27
72114;SHT31;59989;46.220;19.888;2024-03-08T01:12:24;5.38;95.30
72114;SHT31;59989;46.220;19.888;2024-03-08T01:15:26;5.42;95.36
72114;SHT31;59989;46.220;19.888;2024-03-08T01:18:29;5.39;95.18
72114;SHT31;59989;46.220;19.888;2024-03-08T01:21:32;5.41;95.22
72114;SHT31;59989;46.220;19.888;2024-03-08T01:24:35;5.44;95.26
72114;SHT31;59989;46.220;19.888;2024-03-08T01:27:37;5.42;95.38
72114;SHT31;59989;46.220;19.888;2024-03-08T01:30:40;5.41;95.18
72114;SHT31;59989;46.220;19.888;2024-03-08T01:33:44;5.44;94.99
72114;SHT31;59989;46.220;19.888;2024-03-08T01:36:48;5.44;95.01
72114;SHT31;59989;46.220;19.888;2024-03-08T01:39:51;5.45;95.06
72114;SHT31;59989;46.220;19.888;2024-03-08T01:42:53;5.42;95.28
72114;SHT31;59989;46.220;19.888;2024-03-08T01:45:58;5.45;95.22
72114;SHT31;59989;46.220;19.888;2024-03-08T01:49:02;5.44;95.11
72114;SHT31;59989;46.220;19.888;2024-03-08T01:52:05;5.41;95.22
72114;SHT31;59989;46.220;19.888;2024-03-08T01:55:08;5.45;95.36
72114;SHT31;59989;46.220;19.888;2024-03-08T01:58:11;5.42;95.29
72114;SHT31;59989;46.220;19.888;2024-03-08T02:01:15;5.41;95.26
72114;SHT31;59989;46.220;19.888;2024-03-08T02:04:17;5.44;95.30
72114;SHT31;59989;46.220;19.888;2024-03-08T02:07:20;5.41;94.97
72114;SHT31;59989;46.220;19.888;2024-03-08T02:10:24;5.45;94.39
72114;SHT31;59989;46.220;19.888;2024-03-08T02:13:26;5.44;94.45
72114;SHT31;59989;46.220;19.888;2024-03-08T02:16:30;5.45;94.47
72114;SHT31;59989;46.220;19.888;2024-03-08T02:19:33;5.42;94.51
72114;SHT31;59989;46.220;19.888;2024-03-08T02:22:36;5.41;94.71
72114;SHT31;59989;46.220;19.888;2024-03-08T02:25:38;5.39;94.66
72114;SHT31;59989;46.220;19.888;2024-03-08T02:28:41;5.39;94.16
72114;SHT31;59989;46.220;19.888;2024-03-08T02:31:46;5.39;94.40
72114;SHT31;59989;46.220;19.888;2024-03-08T02:34:49;5.39;94.32
72114;SHT31;59989;46.220;19.888;2024-03-08T02:37:52;5.39;93.98
72114;SHT31;59989;46.220;19.888;2024-03-08T02:40:54;5.36;94.09
72114;SHT31;59989;46.220;19.888;2024-03-08T02:43:57;5.36;94.09
72114;SHT31;59989;46.220;19.888;2024-03-08T02:47:00;5.35;93.85
72114;SHT31;59989;46.220;19.888;2024-03-08T02:50:03;5.32;93.90
72114;SHT31;59989;46.220;19.888;2024-03-08T02:53:06;5.34;94.01
72114;SHT31;59989;46.220;19.888;2024-03-08T02:56:08;5.32;94.12
72114;SHT31;59989;46.220;19.888;2024-03-08T02:59:15;5.30;94.32
72114;SHT31;59989;46.220;19.888;2024-03-08T03:02:21;5.30;94.30
72114;SHT31;59989;46.220;19.888;2024-03-08T03:05:25;5.31;94.16
72114;SHT31;59989;46.220;19.888;2024-03-08T03:08:28;5.27;94.15
72114;SHT31;59989;46.220;19.888;2024-03-08T03:11:30;5.28;94.21
72114;SHT31;59989;46.220;19.888;2024-03-08T03:14:35;5.28;94.33
72114;SHT31;59989;46.220;19.888;2024-03-08T03:17:38;5.24;94.44
72114;SHT31;59989;46.220;19.888;2024-03-08T03:20:41;5.25;94.66
72114;SHT31;59989;46.220;19.888;2024-03-08T03:23:45;5.28;94.51
72114;SHT31;59989;46.220;19.888;2024-03-08T03:26:48;5.27;94.37
72114;SHT31;59989;46.220;19.888;2024-03-08T03:29:52;5.23;94.33
72114;SHT31;59989;46.220;19.888;2024-03-08T03:32:54;5.21;94.50
72114;SHT31;59989;46.220;19.888;2024-03-08T03:35:59;5.20;94.59
72114;SHT31;59989;46.220;19.888;2024-03-08T03:39:02;5.21;94.77
72114;SHT31;59989;46.220;19.888;2024-03-08T03:42:13;5.17;94.91
72114;SHT31;59989;46.220;19.888;2024-03-08T03:45:17;5.17;94.82
72114;SHT31;59989;46.220;19.888;2024-03-08T03:48:22;5.17;94.51
72114;SHT31;59989;46.220;19.888;2024-03-08T03:51:24;5.14;94.46
72114;SHT31;59989;46.220;19.888;2024-03-08T03:54:28;5.14;94.57
72114;SHT31;59989;46.220;19.888;2024-03-08T03:57:32;5.15;94.37
72114;SHT31;59989;46.220;19.888;2024-03-08T04:00:35;5.17;94.56
72114;SHT31;59989;46.220;19.888;2024-03-08T04:03:41;5.14;94.55
72114;SHT31;59989;46.220;19.888;2024-03-08T04:06:44;5.10;94.61
72114;SHT31;59989;46.220;19.888;2024-03-08T04:09:47;5.07;94.75
72114;SHT31;59989;46.220;19.888;2024-03-08T04:12:49;5.07;94.77
72114;SHT31;59989;46.220;19.888;2024-03-08T04:15:52;5.07;94.90
72114;SHT31;59989;46.220;19.888;2024-03-08T04:18:54;5.03;94.86
72114;SHT31;59989;46.220;19.888;2024-03-08T04:21:57;5.01;94.82
72114;SHT31;59989;46.220;19.888;2024-03-08T04:25:00;4.98;94.72
72114;SHT31;59989;46.220;19.888;2024-03-08T04:28:02;5.03;94.73
72114;SHT31;59989;46.220;19.888;2024-03-08T04:31:05;5.00;94.93
72114;SHT31;59989;46.220;19.888;2024-03-08T04:34:08;4.98;94.84
72114;SHT31;59989;46.220;19.888;2024-03-08T04:37:11;4.98;95.06
72114;SHT31;59989;46.220;19.888;2024-03-08T04:40:16;4.97;95.08
72114;SHT31;59989;46.220;19.888;2024-03-08T04:43:18;4.97;95.20
72114;SHT31;59989;46.220;19.888;2024-03-08T04:46:21;4.98;95.29
72114;SHT31;59989;46.220;19.888;2024-03-08T04:49:23;4.97;95.37
72114;SHT31;59989;46.220;19.888;2024-03-08T04:52:26;4.97;95.29
72114;SHT31;59989;46.220;19.888;2024-03-08T04:55:30;4.98;95.28
72114;SHT31;59989;46.220;19.888;2024-03-08T04:58:35;4.97;95.35
72114;SHT31;59989;46.220;19.888;2024-03-08T05:01:38;4.97;95.41
72114;SHT31;59989;46.220;19.888;2024-03-08T05:04:40;4.95;95.49
72114;SHT31;59989;46.220;19.888;2024-03-08T05:07:45;4.97;95.27
72114;SHT31;59989;46.220;19.888;2024-03-08T05:10:48;4.97;95.17
72114;SHT31;59989;46.220;19.888;2024-03-08T05:13:50;4.95;95.17
72114;SHT31;59989;46.220;19.888;2024-03-08T05:16:53;4.97;95.46
72114;SHT31;59989;46.220;19.888;2024-03-08T05:19:55;4.97;95.12
72114;SHT31;59989;46.220;19.888;2024-03-08T05:22:58;4.95;95.15
72114;SHT31;59989;46.220;19.888;2024-03-08T05:26:03;4.97;95.31
72114;SHT31;59989;46.220;19.888;2024-03-08T05:29:08;4.98;95.24
72114;SHT31;59989;46.220;19.888;2024-03-08T05:32:11;4.94;95.21
72114;SHT31;59989;46.220;19.888;2024-03-08T05:35:14;4.95;95.12
72114;SHT31;59989;46.220;19.888;2024-03-08T05:38:18;4.98;95.36
72114;SHT31;59989;46.220;19.888;2024-03-08T05:41:22;4.94;95.19
72114;SHT31;59989;46.220;19.888;2024-03-08T05:44:25;4.95;95.35
72114;SHT31;59989;46.220;19.888;2024-03-08T05:47:31;4.97;95.39
72114;SHT31;59989;46.220;19.888;2024-03-08T05:50:33;4.87;95.36
72114;SHT31;59989;46.220;19.888;2024-03-08T05:53:36;4.91;95.64
72114;SHT31;59989;46.220;19.888;2024-03-08T05:56:39;4.94;95.42
72114;SHT31;59989;46.220;19.888;2024-03-08T05:59:46;4.90;95.66
72114;SHT31;59989;46.220;19.888;2024-03-08T06:02:50;4.88;95.99
72114;SHT31;59989;46.220;19.888;2024-03-08T06:05:54;4.86;95.69
72114;SHT31;59989;46.220;19.888;2024-03-08T06:08:57;4.91;96.10
72114;SHT31;59989;46.220;19.888;2024-03-08T06:12:01;4.95;95.86
72114;SHT31;59989;46.220;19.888;2024-03-08T06:15:04;4.90;95.59
72114;SHT31;59989;46.220;19.888;2024-03-08T06:18:07;5.01;95.53
72114;SHT31;59989;46.220;19.888;2024-03-08T06:21:13;5.03;95.58
72114;SHT31;59989;46.220;19.888;2024-03-08T06:24:15;5.10;95.59
72114;SHT31;59989;46.220;19.888;2024-03-08T06:27:18;5.14;95.53
72114;SHT31;59989;46.220;19.888;2024-03-08T06:30:21;5.17;95.49
72114;SHT31;59989;46.220;19.888;2024-03-08T06:33:23;5.18;95.34
72114;SHT31;59989;46.220;19.888;2024-03-08T06:36:28;5.27;95.08
72114;SHT31;59989;46.220;19.888;2024-03-08T06:39:31;5.20;95.09
72114;SHT31;59989;46.220;19.888;2024-03-08T06:42:34;5.05;95.00
72114;SHT31;59989;46.220;19.888;2024-03-08T06:45:37;5.20;95.26
72114;SHT31;59989;46.220;19.888;2024-03-08T06:48:40;5.17;95.41
72114;SHT31;59989;46.220;19.888;2024-03-08T06:51:45;5.14;95.28
72114;SHT31;59989;46.220;19.888;2024-03-08T06:54:48;5.05;95.33
72114;SHT31;59989;46.220;19.888;2024-03-08T06:57:50;5.04;95.44
72114;SHT31;59989;46.220;19.888;2024-03-08T07:00:53;5.07;95.27
72114;SHT31;59989;46.220;19.888;2024-03-08T07:03:58;5.07;95.46
72114;SHT31;59989;46.220;19.888;2024-03-08T07:07:01;5.05;95.57
72114;SHT31;59989;46.220;19.888;2024-03-08T07:10:04;5.00;95.59
72114;SHT31;59989;46.220;19.888;2024-03-08T07:13:08;5.03;95.73
72114;SHT31;59989;46.220;19.888;2024-03-08T07:16:11;5.04;95.46
72114;SHT31;59989;46.220;19.888;2024-03-08T07:19:14;5.05;95.30
72114;SHT31;59989;46.220;19.888;2024-03-08T07:22:17;5.07;95.12
72114;SHT31;59989;46.220;19.888;2024-03-08T07:25:20;5.07;95.32
72114;SHT31;59989;46.220;19.888;2024-03-08T07:28:24;5.11;95.30
72114;SHT31;59989;46.220;19.888;2024-03-08T07:31:30;5.23;95.18
72114;SHT31;59989;46.220;19.888;2024-03-08T07:34:52;5.24;94.85
72114;SHT31;59989;46.220;19.888;2024-03-08T07:37:55;5.36;94.77
72114;SHT31;59989;46.220;19.888;2024-03-08T07:40:57;5.28;94.34
72114;SHT31;59989;46.220;19.888;2024-03-08T07:44:01;5.30;94.19
72114;SHT31;59989;46.220;19.888;2024-03-08T07:47:06;5.28;94.18
72114;SHT31;59989;46.220;19.888;2024-03-08T07:50:11;5.35;94.20
72114;SHT31;59989;46.220;19.888;2024-03-08T07:53:18;5.32;94.02
72114;SHT31;59989;46.220;19.888;2024-03-08T07:56:21;5.32;94.17
72114;SHT31;59989;46.220;19.888;2024-03-08T07:59:24;5.38;93.45
72114;SHT31;59989;46.220;19.888;2024-03-08T08:02:26;5.35;93.89
72114;SHT31;59989;46.220;19.888;2024-03-08T08:05:29;5.41;93.84
72114;SHT31;59989;46.220;19.888;2024-03-08T08:08:32;5.39;93.91
72114;SHT31;59989;46.220;19.888;2024-03-08T08:11:35;5.39;93.69
72114;SHT31;59989;46.220;19.888;2024-03-08T08:14:38;5.51;93.96
72114;SHT31;59989;46.220;19.888;2024-03-08T08:17:45;5.59;93.89
72114;SHT31;59989;46.220;19.888;2024-03-08T08:20:48;5.60;93.70
72114;SHT31;59989;46.220;19.888;2024-03-08T08:23:53;5.65;93.69
72114;SHT31;59989;46.220;19.888;2024-03-08T08:26:56;5.60;93.86
72114;SHT31;59989;46.220;19.888;2024-03-08T08:29:59;5.52;93.54
72114;SHT31;59989;46.220;19.888;2024-03-08T08:33:01;5.60;93.71
72114;SHT31;59989;46.220;19.888;2024-03-08T08:36:05;5.66;93.75
72114;SHT31;59989;46.220;19.888;2024-03-08T08:39:07;5.69;94.04
72114;SHT31;59989;46.220;19.888;2024-03-08T08:42:16;5.70;94.06
72114;SHT31;59989;46.220;19.888;2024-03-08T08:45:18;5.74;93.81
72114;SHT31;59989;46.220;19.888;2024-03-08T08:48:27;5.76;93.52
72114;SHT31;59989;46.220;19.888;2024-03-08T08:51:31;5.77;93.55
72114;SHT31;59989;46.220;19.888;2024-03-08T08:54:38;5.69;93.37
72114;SHT31;59989;46.220;19.888;2024-03-08T08:57:41;5.69;93.29
72114;SHT31;59989;46.220;19.888;2024-03-08T09:00:44;5.69;93.11
72114;SHT31;59989;46.220;19.888;2024-03-08T09:03:47;5.74;92.98
72114;SHT31;59989;46.220;19.888;2024-03-08T09:06:50;5.76;93.21
72114;SHT31;59989;46.220;19.888;2024-03-08T09:09:52;5.79;92.98
72114;SHT31;59989;46.220;19.888;2024-03-08T09:12:59;5.82;93.11
72114;SHT31;59989;46.220;19.888;2024-03-08T09:16:02;5.89;93.27
72114;SHT31;59989;46.220;19.888;2024-03-08T09:19:07;5.92;93.06
72114;SHT31;59989;46.220;19.888;2024-03-08T09:22:13;5.87;93.47
72114;SHT31;59989;46.220;19.888;2024-03-08T09:25:16;5.94;93.40
72114;SHT31;59989;46.220;19.888;2024-03-08T09:28:19;5.80;93.54
72114;SHT31;59989;46.220;19.888;2024-03-08T09:31:22;5.85;93.53
72114;SHT31;59989;46.220;19.888;2024-03-08T09:34:25;5.90;93.66
72114;SHT31;59989;46.220;19.888;2024-03-08T09:37:38;6.00;93.65
72114;SHT31;59989;46.220;19.888;2024-03-08T09:40:41;6.03;93.84
72114;SHT31;59989;46.220;19.888;2024-03-08T09:43:45;6.10;93.92
72114;SHT31;59989;46.220;19.888;2024-03-08T09:46:48;6.04;94.38
72114;SHT31;59989;46.220;19.888;2024-03-08T09:49:53;6.00;94.29
72114;SHT31;59989;46.220;19.888;2024-03-08T09:52:56;5.96;94.43
72114;SHT31;59989;46.220;19.888;2024-03-08T09:56:03;6.01;94.70
72114;SHT31;59989;46.220;19.888;2024-03-08T09:59:06;6.06;94.94
72114;SHT31;59989;46.220;19.888;2024-03-08T10:02:13;5.97;94.82
72114;SHT31;59989;46.220;19.888;2024-03-08T10:05:19;5.94;94.99
72114;SHT31;59989;46.220;19.888;2024-03-08T10:08:24;6.10;95.08
72114;SHT31;59989;46.220;19.888;2024-03-08T10:11:26;6.11;94.74
72114;SHT31;59989;46.220;19.888;2024-03-08T10:14:29;5.99;95.00
72114;SHT31;59989;46.220;19.888;2024-03-08T10:17:32;6.01;94.87
72114;SHT31;59989;46.220;19.888;2024-03-08T10:20:35;6.00;95.04
72114;SHT31;59989;46.220;19.888;2024-03-08T10:23:39;5.92;94.94
72114;SHT31;59989;46.220;19.888;2024-03-08T10:26:41;5.94;95.04
72114;SHT31;59989;46.220;19.888;2024-03-08T10:29:50;5.83;95.05
72114;SHT31;59989;46.220;19.888;2024-03-08T10:32:54;5.90;94.92
72114;SHT31;59989;46.220;19.888;2024-03-08T10:35:57;5.90;94.83
72114;SHT31;59989;46.220;19.888;2024-03-08T10:39:01;5.92;94.74
72114;SHT31;59989;46.220;19.888;2024-03-08T10:42:05;5.93;94.76
72114;SHT31;59989;46.220;19.888;2024-03-08T10:45:36;5.94;94.59
72114;SHT31;59989;46.220;19.888;2024-03-08T10:48:49;5.97;94.74
72114;SHT31;59989;46.220;19.888;2024-03-08T10:51:52;5.94;94.54
72114;SHT31;59989;46.220;19.888;2024-03-08T10:54:56;5.99;94.40
72114;SHT31;59989;46.220;19.888;2024-03-08T10:57:59;6.03;94.58
72114;SHT31;59989;46.220;19.888;2024-03-08T11:01:03;6.10;94.30
72114;SHT31;59989;46.220;19.888;2024-03-08T11:04:06;6.13;94.20
72114;SHT31;59989;46.220;19.888;2024-03-08T11:07:12;6.14;94.21
72114;SHT31;59989;46.220;19.888;2024-03-08T11:10:20;6.14;94.27
72114;SHT31;59989;46.220;19.888;2024-03-08T11:13:36;6.14;94.17
72114;SHT31;59989;46.220;19.888;2024-03-08T11:16:40;6.31;94.12
72114;SHT31;59989;46.220;19.888;2024-03-08T11:19:48;6.35;93.97
72114;SHT31;59989;46.220;19.888;2024-03-08T11:22:56;6.35;93.75
72114;SHT31;59989;46.220;19.888;2024-03-08T11:26:03;6.40;93.71
72114;SHT31;59989;46.220;19.888;2024-03-08T11:32:32;6.62;93.69
72114;SHT31;59989;46.220;19.888;2024-03-08T11:35:35;6.72;93.67
72114;SHT31;59989;46.220;19.888;2024-03-08T11:38:41;6.89;93.39
72114;SHT31;59989;46.220;19.888;2024-03-08T11:41:44;6.78;93.11
72114;SHT31;59989;46.220;19.888;2024-03-08T11:44:50;6.79;93.26
72114;SHT31;59989;46.220;19.888;2024-03-08T11:47:53;6.79;93.01
72114;SHT31;59989;46.220;19.888;2024-03-08T11:51:00;6.83;93.07
72114;SHT31;59989;46.220;19.888;2024-03-08T11:54:04;6.76;92.93
72114;SHT31;59989;46.220;19.888;2024-03-08T11:57:08;6.82;92.72
72114;SHT31;59989;46.220;19.888;2024-03-08T12:00:16;6.80;92.81
72114;SHT31;59989;46.220;19.888;2024-03-08T12:03:28;6.71;92.82
72114;SHT31;59989;46.220;19.888;2024-03-08T12:06:39;6.73;93.21
72114;SHT31;59989;46.220;19.888;2024-03-08T12:09:42;6.72;93.01
72114;SHT31;59989;46.220;19.888;2024-03-08T12:12:50;6.76;93.11
72114;SHT31;59989;46.220;19.888;2024-03-08T12:15:53;6.85;93.07
72114;SHT31;59989;46.220;19.888;2024-03-08T12:18:56;6.99;93.04
72114;SHT31;59989;46.220;19.888;2024-03-08T12:22:08;7.03;93.18
72114;SHT31;59989;46.220;19.888;2024-03-08T12:25:12;7.20;93.01
72114;SHT31;59989;46.220;19.888;2024-03-08T12:28:15;7.35;92.77
72114;SHT31;59989;46.220;19.888;2024-03-08T12:31:18;7.72;91.46
72114;SHT31;59989;46.220;19.888;2024-03-08T12:34:23;7.88;90.68
72114;SHT31;59989;46.220;19.888;2024-03-08T12:37:25;8.00;89.89
72114;SHT31;59989;46.220;19.888;2024-03-08T12:40:30;7.86;88.92
72114;SHT31;59989;46.220;19.888;2024-03-08T12:43:34;7.98;89.65
72114;SHT31;59989;46.220;19.888;2024-03-08T12:46:37;8.16;89.52
72114;SHT31;59989;46.220;19.888;2024-03-08T12:49:46;8.16;89.14
72114;SHT31;59989;46.220;19.888;2024-03-08T12:52:49;8.10;89.00
72114;SHT31;59989;46.220;19.888;2024-03-08T12:55:55;7.93;89.29
72114;SHT31;59989;46.220;19.888;2024-03-08T12:59:00;7.92;89.96
72114;SHT31;59989;46.220;19.888;2024-03-08T13:02:03;7.86;89.95
72114;SHT31;59989;46.220;19.888;2024-03-08T13:05:05;7.86;89.65
72114;SHT31;59989;46.220;19.888;2024-03-08T13:08:09;7.86;89.40
72114;SHT31;59989;46.220;19.888;2024-03-08T13:11:15;7.90;89.34
72114;SHT31;59989;46.220;19.888;2024-03-08T13:14:19;8.02;89.45
72114;SHT31;59989;46.220;19.888;2024-03-08T13:17:22;7.96;88.88
72114;SHT31;59989;46.220;19.888;2024-03-08T13:20:29;8.03;88.72
72114;SHT31;59989;46.220;19.888;2024-03-08T13:23:41;8.07;88.34
72114;SHT31;59989;46.220;19.888;2024-03-08T13:26:47;8.05;89.17
72114;SHT31;59989;46.220;19.888;2024-03-08T13:29:50;8.14;88.86
72114;SHT31;59989;46.220;19.888;2024-03-08T13:32:53;8.03;89.04
72114;SHT31;59989;46.220;19.888;2024-03-08T13:35:56;7.93;89.17
72114;SHT31;59989;46.220;19.888;2024-03-08T13:39:06;7.90;89.13
72114;SHT31;59989;46.220;19.888;2024-03-08T13:42:17;7.81;90.12
72114;SHT31;59989;46.220;19.888;2024-03-08T13:45:21;7.74;90.33
72114;SHT31;59989;46.220;19.888;2024-03-08T13:48:27;7.69;90.04
72114;SHT31;59989;46.220;19.888;2024-03-08T13:51:29;7.67;90.28
72114;SHT31;59989;46.220;19.888;2024-03-08T13:54:33;7.67;90.72
72114;SHT31;59989;46.220;19.888;2024-03-08T13:57:35;7.61;90.81
72114;SHT31;59989;46.220;19.888;2024-03-08T14:00:38;7.59;90.80
72114;SHT31;59989;46.220;19.888;2024-03-08T14:03:43;7.54;90.45
72114;SHT31;59989;46.220;19.888;2024-03-08T14:06:46;7.51;90.56
72114;SHT31;59989;46.220;19.888;2024-03-08T14:09:49;7.52;90.53
72114;SHT31;59989;46.220;19.888;2024-03-08T14:12:52;7.47;90.67
72114;SHT31;59989;46.220;19.888;2024-03-08T14:15:54;7.46;90.46
72114;SHT31;59989;46.220;19.888;2024-03-08T14:18:58;7.46;90.63
72114;SHT31;59989;46.220;19.888;2024-03-08T14:22:06;7.44;90.77
72114;SHT31;59989;46.220;19.888;2024-03-08T14:25:09;7.44;90.71
72114;SHT31;59989;46.220;19.888;2024-03-08T14:28:20;7.41;90.89
72114;SHT31;59989;46.220;19.888;2024-03-08T14:31:25;7.44;90.61
72114;SHT31;59989;46.220;19.888;2024-03-08T14:34:28;7.40;90.99
72114;SHT31;59989;46.220;19.888;2024-03-08T14:37:31;7.44;91.24
72114;SHT31;59989;46.220;19.888;2024-03-08T14:40:34;7.47;91.34
72114;SHT31;59989;46.220;19.888;2024-03-08T14:43:38;7.52;91.28
72114;SHT31;59989;46.220;19.888;2024-03-08T14:46:41;7.50;91.24
72114;SHT31;59989;46.220;19.888;2024-03-08T14:49:45;7.48;91.17
72114;SHT31;59989;46.220;19.888;2024-03-08T14:52:51;7.41;91.20
72114;SHT31;59989;46.220;19.888;2024-03-08T14:55:54;7.38;91.37
72114;SHT31;59989;46.220;19.888;2024-03-08T14:58:57;7.43;91.54
72114;SHT31;59989;46.220;19.888;2024-03-08T15:02:02;7.35;91.59
72114;SHT31;59989;46.220;19.888;2024-03-08T15:05:04;7.44;91.69
72114;SHT31;59989;46.220;19.888;2024-03-08T15:08:11;7.44;91.63
72114;SHT31;59989;46.220;19.888;2024-03-08T15:11:22;7.48;91.47
72114;SHT31;59989;46.220;19.888;2024-03-08T15:14:28;7.46;91.80
72114;SHT31;59989;46.220;19.888;2024-03-08T15:17:30;7.44;91.84
72114;SHT31;59989;46.220;19.888;2024-03-08T15:20:33;7.44;91.68
72114;SHT31;59989;46.220;19.888;2024-03-08T15:23:37;7.43;91.84
72114;SHT31;59989;46.220;19.888;2024-03-08T15:26:39;7.43;91.94
72114;SHT31;59989;46.220;19.888;2024-03-08T15:29:42;7.51;92.11
72114;SHT31;59989;46.220;19.888;2024-03-08T15:32:48;7.47;91.93
72114;SHT31;59989;46.220;19.888;2024-03-08T15:35:52;7.43;91.86
72114;SHT31;59989;46.220;19.888;2024-03-08T15:39:01;7.46;92.01
72114;SHT31;59989;46.220;19.888;2024-03-08T15:42:05;7.44;91.79
72114;SHT31;59989;46.220;19.888;2024-03-08T15:45:08;7.43;92.08
72114;SHT31;59989;46.220;19.888;2024-03-08T15:48:14;7.44;92.22
72114;SHT31;59989;46.220;19.888;2024-03-08T15:51:18;7.37;92.33
72114;SHT31;59989;46.220;19.888;2024-03-08T15:54:22;7.35;92.29
72114;SHT31;59989;46.220;19.888;2024-03-08T15:57:24;7.32;92.62
72114;SHT31;59989;46.220;19.888;2024-03-08T16:00:27;7.32;92.55
72114;SHT31;59989;46.220;19.888;2024-03-08T16:03:37;7.30;92.70
72114;SHT31;59989;46.220;19.888;2024-03-08T16:06:40;7.31;92.87
72114;SHT31;59989;46.220;19.888;2024-03-08T16:09:43;7.31;92.63
72114;SHT31;59989;46.220;19.888;2024-03-08T16:12:46;7.32;92.69
72114;SHT31;59989;46.220;19.888;2024-03-08T16:15:50;7.28;92.89
72114;SHT31;59989;46.220;19.888;2024-03-08T16:18:53;7.30;92.74
72114;SHT31;59989;46.220;19.888;2024-03-08T16:21:55;7.28;93.01
72114;SHT31;59989;46.220;19.888;2024-03-08T16:24:59;7.30;93.15
72114;SHT31;59989;46.220;19.888;2024-03-08T16:28:03;7.27;93.31
72114;SHT31;59989;46.220;19.888;2024-03-08T16:31:05;7.24;93.19
72114;SHT31;59989;46.220;19.888;2024-03-08T16:34:11;7.26;93.37
72114;SHT31;59989;46.220;19.888;2024-03-08T16:37:14;7.20;93.39
72114;SHT31;59989;46.220;19.888;2024-03-08T16:40:19;7.21;93.40
72114;SHT31;59989;46.220;19.888;2024-03-08T16:43:23;7.24;93.38
72114;SHT31;59989;46.220;19.888;2024-03-08T16:46:25;7.20;93.42
72114;SHT31;59989;46.220;19.888;2024-03-08T16:49:34;7.24;93.41
72114;SHT31;59989;46.220;19.888;2024-03-08T16:52:37;7.19;93.34
72114;SHT31;59989;46.220;19.888;2024-03-08T16:55:40;7.14;93.60
72114;SHT31;59989;46.220;19.888;2024-03-08T16:58:43;7.16;93.61
72114;SHT31;59989;46.220;19.888;2024-03-08T17:01:47;7.17;93.56
72114;SHT31;59989;46.220;19.888;2024-03-08T17:04:50;7.14;93.59
72114;SHT31;59989;46.220;19.888;2024-03-08T17:07:57;7.11;93.74
72114;SHT31;59989;46.220;19.888;2024-03-08T17:11:03;7.07;93.81
72114;SHT31;59989;46.220;19.888;2024-03-08T17:14:05;7.04;93.83
72114;SHT31;59989;46.220;19.888;2024-03-08T17:17:08;7.03;93.91
72114;SHT31;59989;46.220;19.888;2024-03-08T17:20:11;7.03;93.95
72114;SHT31;59989;46.220;19.888;2024-03-08T17:23:17;7.06;93.94
72114;SHT31;59989;46.220;19.888;2024-03-08T17:26:20;7.04;93.95
72114;SHT31;59989;46.220;19.888;2024-03-08T17:29:23;7.01;93.96
72114;SHT31;59989;46.220;19.888;2024-03-08T17:32:25;7.01;93.99
72114;SHT31;59989;46.220;19.888;2024-03-08T17:35:28;6.99;94.03
72114;SHT31;59989;46.220;19.888;2024-03-08T17:38:31;6.99;94.27
72114;SHT31;59989;46.220;19.888;2024-03-08T17:41:34;7.00;94.26
72114;SHT31;59989;46.220;19.888;2024-03-08T17:44:37;6.92;94.33
72114;SHT31;59989;46.220;19.888;2024-03-08T17:47:39;6.92;94.28
72114;SHT31;59989;46.220;19.888;2024-03-08T17:50:43;6.86;94.36
72114;SHT31;59989;46.220;19.888;2024-03-08T17:53:46;6.86;94.34
72114;SHT31;59989;46.220;19.888;2024-03-08T17:56:53;6.86;94.31
72114;SHT31;59989;46.220;19.888;2024-03-08T17:59:57;6.85;94.45
72114;SHT31;59989;46.220;19.888;2024-03-08T18:03:01;6.85;94.30
72114;SHT31;59989;46.220;19.888;2024-03-08T18:06:04;6.83;94.28
72114;SHT31;59989;46.220;19.888;2024-03-08T18:09:08;6.80;94.29
72114;SHT31;59989;46.220;19.888;2024-03-08T18:12:13;6.86;94.25
72114;SHT31;59989;46.220;19.888;2024-03-08T18:15:17;6.80;94.27
72114;SHT31;59989;46.220;19.888;2024-03-08T18:18:22;6.78;94.03
72114;SHT31;59989;46.220;19.888;2024-03-08T18:21:25;6.69;94.15
72114;SHT31;59989;46.220;19.888;2024-03-08T18:24:27;6.64;94.27
72114;SHT31;59989;46.220;19.888;2024-03-08T18:27:30;6.61;94.31
72114;SHT31;59989;46.220;19.888;2024-03-08T18:30:33;6.61;94.35
72114;SHT31;59989;46.220;19.888;2024-03-08T18:33:37;6.59;94.34
72114;SHT31;59989;46.220;19.888;2024-03-08T18:36:40;6.59;94.37
72114;SHT31;59989;46.220;19.888;2024-03-08T18:39:42;6.61;94.29
72114;SHT31;59989;46.220;19.888;2024-03-08T18:42:45;6.61;94.24
72114;SHT31;59989;46.220;19.888;2024-03-08T18:45:48;6.58;94.29
72114;SHT31;59989;46.220;19.888;2024-03-08T18:48:50;6.61;94.24
72114;SHT31;59989;46.220;19.888;2024-03-08T18:51:53;6.64;94.20
72114;SHT31;59989;46.220;19.888;2024-03-08T18:54:56;6.65;94.20
72114;SHT31;59989;46.220;19.888;2024-03-08T18:57:59;6.61;94.13
72114;SHT31;59989;46.220;19.888;2024-03-08T19:01:04;6.65;93.80
72114;SHT31;59989;46.220;19.888;2024-03-08T19:04:08;6.69;93.65
72114;SHT31;59989;46.220;19.888;2024-03-08T19:07:10;6.69;93.60
72114;SHT31;59989;46.220;19.888;2024-03-08T19:10:14;6.69;93.58
72114;SHT31;59989;46.220;19.888;2024-03-08T19:13:21;6.68;93.38
72114;SHT31;59989;46.220;19.888;2024-03-08T19:16:23;6.65;93.39
72114;SHT31;59989;46.220;19.888;2024-03-08T19:19:26;6.68;93.44
72114;SHT31;59989;46.220;19.888;2024-03-08T19:22:30;6.68;93.35
72114;SHT31;59989;46.220;19.888;2024-03-08T19:25:34;6.62;93.26